sensor_id;sensor_type;location;lat;lon;timestamp;pressure;altitude;pressure_sealevel;temperature;humidity
39243;BME280;29823;47.404;8.566;2022-08-02T00:00:13;96742.31;;;18.27;100.00
39243;BME280;29823;47.404;8.566;2022-08-02T00:02:43;96742.88;;;18.04;100.00
39243;BME280;29823;47.404;8.566;2022-08-02T00:05:12;96735.34;;;18.06;100.00
39243;BME280;29823;47.404;8.566;2022-08-02T00:07:40;96730.69;;;18.31;100.00
39243;BME280;29823;47.404;8.566;2022-08-02T00:10:10;96727.13;;;18.56;100.00
39243;BME280;29823;47.404;8.566;2022-08-02T00:12:38;96721.94;;;18.59;100.00
39243;BME280;29823;47.404;8.566;2022-08-02T00:15:07;96720.91;;;18.45;100.00
39243;BME280;29823;47.404;8.566;2022-08-02T00:17:43;96724.66;;;18.64;100.00
39243;BME280;29823;47.404;8.566;2022-08-02T00:20:12;96726.03;;;18.52;100.00
39243;BME280;29823;47.404;8.566;2022-08-02T00:22:40;96723.66;;;18.30;100.00
39243;BME280;29823;47.404;8.566;2022-08-02T00:25:08;96729.09;;;18.05;100.00
39243;BME280;29823;47.404;8.566;2022-08-02T00:27:36;96725.56;;;18.15;100.00
39243;BME280;29823;47.404;8.566;2022-08-02T00:30:05;96727.47;;;18.09;100.00
39243;BME280;29823;47.404;8.566;2022-08-02T00:32:32;96725.84;;;18.08;100.00
39243;BME280;29823;47.404;8.566;2022-08-02T00:35:02;96728.53;;;18.13;100.00
39243;BME280;29823;47.404;8.566;2022-08-02T00:37:30;96721.47;;;18.22;100.00
39243;BME280;29823;47.404;8.566;2022-08-02T00:39:58;96720.66;;;18.27;100.00
39243;BME280;29823;47.404;8.566;2022-08-02T00:42:27;96728.28;;;18.00;100.00
39243;BME280;29823;47.404;8.566;2022-08-02T00:44:55;96719.34;;;18.04;100.00
39243;BME280;29823;47.404;8.566;2022-08-02T00:47:24;96728.56;;;17.98;100.00
39243;BME280;29823;47.404;8.566;2022-08-02T00:49:52;96722.34;;;18.03;100.00
39243;BME280;29823;47.404;8.566;2022-08-02T00:52:21;96710.66;;;18.12;100.00
39243;BME280;29823;47.404;8.566;2022-08-02T00:54:49;96710.41;;;18.09;100.00
39243;BME280;29823;47.404;8.566;2022-08-02T00:57:17;96706.38;;;17.86;100.00
39243;BME280;29823;47.404;8.566;2022-08-02T00:59:44;96698.28;;;17.76;100.00
39243;BME280;29823;47.404;8.566;2022-08-02T01:02:12;96699.34;;;17.85;100.00
39243;BME280;29823;47.404;8.566;2022-08-02T01:04:41;96697.19;;;17.82;100.00
39243;BME280;29823;47.404;8.566;2022-08-02T01:07:08;96692.25;;;18.24;100.00
39243;BME280;29823;47.404;8.566;2022-08-02T01:09:40;96692.88;;;17.81;100.00
39243;BME280;29823;47.404;8.566;2022-08-02T01:12:08;96698.00;;;17.73;100.00
39243;BME280;29823;47.404;8.566;2022-08-02T01:14:37;96693.13;;;17.90;100.00
39243;BME280;29823;47.404;8.566;2022-08-02T01:17:09;96684.22;;;17.74;100.00
39243;BME280;29823;47.404;8.566;2022-08-02T01:19:42;96688.28;;;17.72;100.00
39243;BME280;29823;47.404;8.566;2022-08-02T01:22:38;96689.09;;;17.52;100.00
39243;BME280;29823;47.404;8.566;2022-08-02T01:25:44;96699.38;;;17.50;100.00
39243;BME280;29823;47.404;8.566;2022-08-02T01:28:29;96694.25;;;17.69;100.00
39243;BME280;29823;47.404;8.566;2022-08-02T01:31:02;96698.28;;;17.61;100.00
39243;BME280;29823;47.404;8.566;2022-08-02T01:33:34;96696.63;;;17.35;100.00
39243;BME280;29823;47.404;8.566;2022-08-02T01:36:08;96693.09;;;17.35;100.00
39243;BME280;29823;47.404;8.566;2022-08-02T01:38:39;96694.75;;;17.46;100.00
39243;BME280;29823;47.404;8.566;2022-08-02T01:41:11;96692.06;;;17.71;100.00
39243;BME280;29823;47.404;8.566;2022-08-02T01:43:43;96690.44;;;17.50;100.00
39243;BME280;29823;47.404;8.566;2022-08-02T01:46:14;96683.94;;;17.46;100.00
39243;BME280;29823;47.404;8.566;2022-08-02T01:48:44;96683.09;;;17.35;100.00
39243;BME280;29823;47.404;8.566;2022-08-02T01:51:16;96681.75;;;17.33;100.00
39243;BME280;29823;47.404;8.566;2022-08-02T01:53:47;96682.63;;;17.38;100.00
39243;BME280;29823;47.404;8.566;2022-08-02T01:56:17;96685.31;;;17.43;100.00
39243;BME280;29823;47.404;8.566;2022-08-02T01:58:47;96683.66;;;17.22;100.00
39243;BME280;29823;47.404;8.566;2022-08-02T02:01:18;96690.38;;;17.10;100.00
39243;BME280;29823;47.404;8.566;2022-08-02T02:03:47;96690.66;;;17.08;100.00
39243;BME280;29823;47.404;8.566;2022-08-02T02:06:17;96686.88;;;17.14;100.00
39243;BME280;29823;47.404;8.566;2022-08-02T02:08:46;96698.25;;;17.36;100.00
39243;BME280;29823;47.404;8.566;2022-08-02T02:11:15;96693.44;;;17.43;100.00
39243;BME280;29823;47.404;8.566;2022-08-02T02:14:06;96686.06;;;17.24;100.00
39243;BME280;29823;47.404;8.566;2022-08-02T02:16:35;96693.38;;;17.28;100.00
39243;BME280;29823;47.404;8.566;2022-08-02T02:19:04;96681.25;;;17.41;100.00
39243;BME280;29823;47.404;8.566;2022-08-02T02:21:33;96682.56;;;17.18;100.00
39243;BME280;29823;47.404;8.566;2022-08-02T02:24:02;96685.78;;;17.20;100.00
39243;BME280;29823;47.404;8.566;2022-08-02T02:26:34;96671.22;;;17.11;100.00
39243;BME280;29823;47.404;8.566;2022-08-02T02:29:09;96661.44;;;17.05;100.00
39243;BME280;29823;47.404;8.566;2022-08-02T02:31:39;96663.09;;;17.06;100.00
39243;BME280;29823;47.404;8.566;2022-08-02T02:34:11;96671.72;;;17.08;100.00
39243;BME280;29823;47.404;8.566;2022-08-02T02:36:48;96668.22;;;17.18;100.00
39243;BME280;29823;47.404;8.566;2022-08-02T02:39:19;96659.03;;;17.24;100.00
39243;BME280;29823;47.404;8.566;2022-08-02T02:41:50;96657.16;;;17.34;100.00
39243;BME280;29823;47.404;8.566;2022-08-02T02:44:21;96666.94;;;17.40;100.00
39243;BME280;29823;47.404;8.566;2022-08-02T02:46:51;96669.06;;;17.33;100.00
39243;BME280;29823;47.404;8.566;2022-08-02T02:49:20;96665.00;;;17.21;100.00
39243;BME280;29823;47.404;8.566;2022-08-02T02:51:50;96670.38;;;17.01;100.00
39243;BME280;29823;47.404;8.566;2022-08-02T02:54:19;96667.94;;;17.14;100.00
39243;BME280;29823;47.404;8.566;2022-08-02T02:57:00;96665.53;;;17.28;100.00
39243;BME280;29823;47.404;8.566;2022-08-02T02:59:31;96662.56;;;17.29;100.00
39243;BME280;29823;47.404;8.566;2022-08-02T03:02:00;96667.72;;;17.26;100.00
39243;BME280;29823;47.404;8.566;2022-08-02T03:04:29;96662.81;;;17.23;100.00
39243;BME280;29823;47.404;8.566;2022-08-02T03:07:17;96663.91;;;17.27;100.00
39243;BME280;29823;47.404;8.566;2022-08-02T03:09:45;96667.16;;;17.14;100.00
39243;BME280;29823;47.404;8.566;2022-08-02T03:12:21;96665.50;;;16.98;100.00
39243;BME280;29823;47.404;8.566;2022-08-02T03:14:58;96660.91;;;17.03;100.00
39243;BME280;29823;47.404;8.566;2022-08-02T03:17:36;96659.81;;;17.04;100.00
39243;BME280;29823;47.404;8.566;2022-08-02T03:20:08;96654.16;;;17.01;100.00
39243;BME280;29823;47.404;8.566;2022-08-02T03:22:36;96653.84;;;16.87;100.00
39243;BME280;29823;47.404;8.566;2022-08-02T03:25:05;96656.06;;;16.95;100.00
39243;BME280;29823;47.404;8.566;2022-08-02T03:27:34;96646.88;;;16.96;100.00
39243;BME280;29823;47.404;8.566;2022-08-02T03:30:05;96648.72;;;16.86;100.00
39243;BME280;29823;47.404;8.566;2022-08-02T03:32:34;96638.19;;;16.74;100.00
39243;BME280;29823;47.404;8.566;2022-08-02T03:35:04;96639.56;;;16.82;100.00
39243;BME280;29823;47.404;8.566;2022-08-02T03:37:35;96641.19;;;16.93;100.00
39243;BME280;29823;47.404;8.566;2022-08-02T03:40:06;96634.19;;;17.12;100.00
39243;BME280;29823;47.404;8.566;2022-08-02T03:42:34;96631.22;;;17.18;100.00
39243;BME280;29823;47.404;8.566;2022-08-02T03:45:07;96626.88;;;17.07;100.00
39243;BME280;29823;47.404;8.566;2022-08-02T03:47:36;96630.63;;;16.86;100.00
39243;BME280;29823;47.404;8.566;2022-08-02T03:50:05;96636.28;;;16.75;100.00
39243;BME280;29823;47.404;8.566;2022-08-02T03:52:34;96637.06;;;16.65;100.00
39243;BME280;29823;47.404;8.566;2022-08-02T03:55:03;96634.34;;;16.60;100.00
39243;BME280;29823;47.404;8.566;2022-08-02T03:57:31;96642.75;;;16.74;100.00
39243;BME280;29823;47.404;8.566;2022-08-02T03:59:59;96635.50;;;16.84;100.00
39243;BME280;29823;47.404;8.566;2022-08-02T04:02:28;96631.19;;;16.93;100.00
39243;BME280;29823;47.404;8.566;2022-08-02T04:04:56;96637.13;;;16.80;100.00
39243;BME280;29823;47.404;8.566;2022-08-02T04:07:23;96635.97;;;16.66;100.00
39243;BME280;29823;47.404;8.566;2022-08-02T04:10:11;96642.50;;;16.75;100.00
39243;BME280;29823;47.404;8.566;2022-08-02T04:12:39;96639.25;;;16.78;100.00
39243;BME280;29823;47.404;8.566;2022-08-02T04:15:09;96637.13;;;16.80;100.00
39243;BME280;29823;47.404;8.566;2022-08-02T04:17:42;96642.25;;;16.77;100.00
39243;BME280;29823;47.404;8.566;2022-08-02T04:20:13;96647.06;;;16.70;100.00
39243;BME280;29823;47.404;8.566;2022-08-02T04:22:46;96651.16;;;16.82;100.00
39243;BME280;29823;47.404;8.566;2022-08-02T04:25:17;96645.22;;;16.85;100.00
39243;BME280;29823;47.404;8.566;2022-08-02T04:28:00;96653.38;;;17.20;100.00
39243;BME280;29823;47.404;8.566;2022-08-02T04:30:44;96654.97;;;17.21;100.00
39243;BME280;29823;47.404;8.566;2022-08-02T04:33:14;96659.31;;;17.37;100.00
39243;BME280;29823;47.404;8.566;2022-08-02T04:35:43;96660.66;;;17.35;100.00
39243;BME280;29823;47.404;8.566;2022-08-02T04:38:12;96666.34;;;17.28;100.00
39243;BME280;29823;47.404;8.566;2022-08-02T04:40:40;96667.72;;;17.26;100.00
39243;BME280;29823;47.404;8.566;2022-08-02T04:43:16;96666.06;;;17.30;100.00
39243;BME280;29823;47.404;8.566;2022-08-02T04:45:43;96666.94;;;17.40;100.00
39243;BME280;29823;47.404;8.566;2022-08-02T04:48:14;96666.94;;;17.65;100.00
39243;BME280;29823;47.404;8.566;2022-08-02T04:50:42;96674.47;;;17.78;100.00
39243;BME280;29823;47.404;8.566;2022-08-02T04:53:10;96669.59;;;17.85;100.00
39243;BME280;29823;47.404;8.566;2022-08-02T04:55:38;96671.19;;;18.01;100.00
39243;BME280;29823;47.404;8.566;2022-08-02T04:58:05;96672.28;;;18.05;100.00
39243;BME280;29823;47.404;8.566;2022-08-02T05:00:53;96681.97;;;18.21;100.00
39243;BME280;29823;47.404;8.566;2022-08-02T05:03:22;96679.78;;;18.33;100.00
39243;BME280;29823;47.404;8.566;2022-08-02T05:05:50;96677.03;;;18.48;100.00
39243;BME280;29823;47.404;8.566;2022-08-02T05:08:18;96684.31;;;18.58;100.00
39243;BME280;29823;47.404;8.566;2022-08-02T05:10:46;96688.59;;;18.64;100.00
39243;BME280;29823;47.404;8.566;2022-08-02T05:13:13;96686.97;;;18.73;100.00
39243;BME280;29823;47.404;8.566;2022-08-02T05:15:41;96683.38;;;18.82;100.00
39243;BME280;29823;47.404;8.566;2022-08-02T05:18:09;96686.63;;;18.89;100.00
39243;BME280;29823;47.404;8.566;2022-08-02T05:20:40;96685.75;;;18.94;100.00
39243;BME280;29823;47.404;8.566;2022-08-02T05:23:07;96693.38;;;18.92;100.00
39243;BME280;29823;47.404;8.566;2022-08-02T05:25:35;96689.22;;;19.04;100.00
39243;BME280;29823;47.404;8.566;2022-08-02T05:28:03;96690.88;;;19.00;100.00
39243;BME280;29823;47.404;8.566;2022-08-02T05:30:37;96697.88;;;19.11;100.00
39243;BME280;29823;47.404;8.566;2022-08-02T05:33:04;96686.16;;;19.26;100.00
39243;BME280;29823;47.404;8.566;2022-08-02T05:35:32;96690.69;;;19.35;100.00
39243;BME280;29823;47.404;8.566;2022-08-02T05:38:01;96693.19;;;19.27;100.00
39243;BME280;29823;47.404;8.566;2022-08-02T05:40:29;96682.50;;;19.40;100.00
39243;BME280;29823;47.404;8.566;2022-08-02T05:42:57;96685.63;;;19.57;100.00
39243;BME280;29823;47.404;8.566;2022-08-02T05:45:25;96678.59;;;19.56;100.00
39243;BME280;29823;47.404;8.566;2022-08-02T05:47:53;96682.28;;;19.70;100.00
39243;BME280;29823;47.404;8.566;2022-08-02T05:50:21;96687.00;;;19.88;100.00
39243;BME280;29823;47.404;8.566;2022-08-02T05:52:55;96686.47;;;19.86;100.00
39243;BME280;29823;47.404;8.566;2022-08-02T05:55:27;96678.09;;;20.11;100.00
39243;BME280;29823;47.404;8.566;2022-08-02T05:58:02;96692.97;;;20.19;100.00
39243;BME280;29823;47.404;8.566;2022-08-02T06:00:33;96689.81;;;20.35;100.00
39243;BME280;29823;47.404;8.566;2022-08-02T06:03:14;96687.72;;;20.51;100.00
39243;BME280;29823;47.404;8.566;2022-08-02T06:06:04;96686.00;;;20.60;100.00
39243;BME280;29823;47.404;8.566;2022-08-02T06:08:36;96689.81;;;20.59;100.00
39243;BME280;29823;47.404;8.566;2022-08-02T06:11:07;96685.94;;;20.41;100.00
39243;BME280;29823;47.404;8.566;2022-08-02T06:13:39;96694.72;;;20.57;100.00
39243;BME280;29823;47.404;8.566;2022-08-02T06:16:08;96688.97;;;20.82;100.00
39243;BME280;29823;47.404;8.566;2022-08-02T06:18:41;96689.88;;;20.96;100.00
39243;BME280;29823;47.404;8.566;2022-08-02T06:21:09;96687.09;;;21.01;100.00
39243;BME280;29823;47.404;8.566;2022-08-02T06:23:57;96685.06;;;21.11;100.00
39243;BME280;29823;47.404;8.566;2022-08-02T06:26:27;96679.72;;;21.06;100.00
39243;BME280;29823;47.404;8.566;2022-08-02T06:28:56;96686.47;;;21.09;100.00
39243;BME280;29823;47.404;8.566;2022-08-02T06:31:24;96683.31;;;21.02;100.00
39243;BME280;29823;47.404;8.566;2022-08-02T06:33:52;96690.59;;;21.25;100.00
39243;BME280;29823;47.404;8.566;2022-08-02T06:36:26;96687.88;;;21.25;100.00
39243;BME280;29823;47.404;8.566;2022-08-02T06:39:02;96681.75;;;21.51;100.00
39243;BME280;29823;47.404;8.566;2022-08-02T06:41:37;96691.53;;;21.71;100.00
39243;BME280;29823;47.404;8.566;2022-08-02T06:44:07;96686.09;;;22.16;100.00
39243;BME280;29823;47.404;8.566;2022-08-02T06:46:55;96684.31;;;22.39;100.00
39243;BME280;29823;47.404;8.566;2022-08-02T06:49:38;96684.50;;;22.15;100.00
39243;BME280;29823;47.404;8.566;2022-08-02T06:52:21;96686.75;;;21.81;100.00
39243;BME280;29823;47.404;8.566;2022-08-02T06:54:54;96678.47;;;22.32;100.00
39243;BME280;29823;47.404;8.566;2022-08-02T06:57:23;96681.22;;;21.86;100.00
39243;BME280;29823;47.404;8.566;2022-08-02T06:59:51;96683.47;;;22.11;100.00
39243;BME280;29823;47.404;8.566;2022-08-02T07:02:19;96687.19;;;22.47;100.00
39243;BME280;29823;47.404;8.566;2022-08-02T07:04:47;96692.66;;;22.61;100.00
39243;BME280;29823;47.404;8.566;2022-08-02T07:07:15;96690.59;;;22.26;100.00
39243;BME280;29823;47.404;8.566;2022-08-02T07:09:42;96687.81;;;21.99;100.00
39243;BME280;29823;47.404;8.566;2022-08-02T07:12:28;96684.75;;;22.46;100.00
39243;BME280;29823;47.404;8.566;2022-08-02T07:14:57;96685.78;;;22.63;100.00
39243;BME280;29823;47.404;8.566;2022-08-02T07:17:25;96682.84;;;22.60;100.00
39243;BME280;29823;47.404;8.566;2022-08-02T07:19:53;96684.94;;;22.90;100.00
39243;BME280;29823;47.404;8.566;2022-08-02T07:22:21;96691.31;;;22.99;100.00
39243;BME280;29823;47.404;8.566;2022-08-02T07:24:50;96695.03;;;23.03;100.00
39243;BME280;29823;47.404;8.566;2022-08-02T07:27:18;96693.03;;;22.68;100.00
39243;BME280;29823;47.404;8.566;2022-08-02T07:29:48;96692.22;;;23.21;100.00
39243;BME280;29823;47.404;8.566;2022-08-02T07:32:16;96700.47;;;23.30;100.00
39243;BME280;29823;47.404;8.566;2022-08-02T07:34:45;96699.78;;;23.82;100.00
39243;BME280;29823;47.404;8.566;2022-08-02T07:37:18;96703.22;;;24.09;100.00
39243;BME280;29823;47.404;8.566;2022-08-02T07:40:07;96704.34;;;24.08;100.00
39243;BME280;29823;47.404;8.566;2022-08-02T07:42:40;96698.53;;;24.01;100.00
39243;BME280;29823;47.404;8.566;2022-08-02T07:45:09;96699.22;;;24.15;100.00
39243;BME280;29823;47.404;8.566;2022-08-02T07:47:37;96692.47;;;24.43;100.00
39243;BME280;29823;47.404;8.566;2022-08-02T07:50:06;96689.63;;;24.57;100.00
39243;BME280;29823;47.404;8.566;2022-08-02T07:52:35;96689.03;;;24.60;100.00
39243;BME280;29823;47.404;8.566;2022-08-02T07:55:03;96690.28;;;24.54;100.00
39243;BME280;29823;47.404;8.566;2022-08-02T07:57:32;96691.66;;;24.73;100.00
39243;BME280;29823;47.404;8.566;2022-08-02T08:00:00;96677.63;;;25.22;100.00
39243;BME280;29823;47.404;8.566;2022-08-02T08:02:29;96683.81;;;25.53;100.00
39243;BME280;29823;47.404;8.566;2022-08-02T08:04:57;96679.69;;;25.08;100.00
39243;BME280;29823;47.404;8.566;2022-08-02T08:07:24;96692.00;;;24.80;100.00
39243;BME280;29823;47.404;8.566;2022-08-02T08:09:52;96684.13;;;25.60;100.00
39243;BME280;29823;47.404;8.566;2022-08-02T08:12:22;96686.06;;;25.68;100.00
39243;BME280;29823;47.404;8.566;2022-08-02T08:14:50;96683.56;;;25.16;100.00
39243;BME280;29823;47.404;8.566;2022-08-02T08:17:18;96686.78;;;26.37;93.94
39243;BME280;29823;47.404;8.566;2022-08-02T08:19:50;96695.94;;;26.49;87.84
39243;BME280;29823;47.404;8.566;2022-08-02T08:22:18;96686.59;;;26.50;94.89
39243;BME280;29823;47.404;8.566;2022-08-02T08:24:46;96694.91;;;25.65;90.64
39243;BME280;29823;47.404;8.566;2022-08-02T08:27:14;96691.88;;;25.92;97.22
39243;BME280;29823;47.404;8.566;2022-08-02T08:29:43;96696.38;;;27.06;88.54
39243;BME280;29823;47.404;8.566;2022-08-02T08:32:11;96688.22;;;26.43;91.20
39243;BME280;29823;47.404;8.566;2022-08-02T08:34:43;96684.44;;;27.02;89.50
39243;BME280;29823;47.404;8.566;2022-08-02T08:37:13;96680.28;;;26.96;78.19
39243;BME280;29823;47.404;8.566;2022-08-02T08:39:44;96685.66;;;28.03;73.60
39243;BME280;29823;47.404;8.566;2022-08-02T08:42:23;96691.03;;;28.00;68.58
39243;BME280;29823;47.404;8.566;2022-08-02T08:44:51;96683.78;;;28.60;68.23
39243;BME280;29823;47.404;8.566;2022-08-02T08:47:19;96687.19;;;28.69;68.43
39243;BME280;29823;47.404;8.566;2022-08-02T08:49:51;96683.78;;;28.84;65.46
39243;BME280;29823;47.404;8.566;2022-08-02T08:52:25;96676.41;;;29.48;63.94
39243;BME280;29823;47.404;8.566;2022-08-02T08:54:54;96684.63;;;29.84;58.82
39243;BME280;29823;47.404;8.566;2022-08-02T08:57:25;96676.84;;;30.14;54.72
39243;BME280;29823;47.404;8.566;2022-08-02T08:59:56;96676.53;;;30.46;54.51
39243;BME280;29823;47.404;8.566;2022-08-02T09:02:24;96678.00;;;29.73;56.79
39243;BME280;29823;47.404;8.566;2022-08-02T09:04:54;96668.75;;;29.81;56.63
39243;BME280;29823;47.404;8.566;2022-08-02T09:07:26;96676.84;;;30.29;57.15
39243;BME280;29823;47.404;8.566;2022-08-02T09:09:56;96681.13;;;29.36;61.16
39243;BME280;29823;47.404;8.566;2022-08-02T09:12:24;96676.81;;;29.23;61.40
39243;BME280;29823;47.404;8.566;2022-08-02T09:14:52;96666.13;;;30.55;56.12
39243;BME280;29823;47.404;8.566;2022-08-02T09:17:19;96668.97;;;30.43;56.59
39243;BME280;29823;47.404;8.566;2022-08-02T09:20:05;96672.28;;;29.94;55.84
39243;BME280;29823;47.404;8.566;2022-08-02T09:22:34;96671.81;;;30.62;58.80
39243;BME280;29823;47.404;8.566;2022-08-02T09:25:02;96677.78;;;29.66;58.01
39243;BME280;29823;47.404;8.566;2022-08-02T09:27:35;96681.41;;;29.82;58.49
39243;BME280;29823;47.404;8.566;2022-08-02T09:30:06;96670.41;;;30.99;54.52
39243;BME280;29823;47.404;8.566;2022-08-02T09:32:45;96661.63;;;30.94;51.65
39243;BME280;29823;47.404;8.566;2022-08-02T09:35:30;96667.66;;;30.99;53.65
39243;BME280;29823;47.404;8.566;2022-08-02T09:38:19;96668.28;;;31.24;52.38
39243;BME280;29823;47.404;8.566;2022-08-02T09:40:49;96661.44;;;30.13;55.14
39243;BME280;29823;47.404;8.566;2022-08-02T09:43:17;96666.00;;;31.79;49.61
39243;BME280;29823;47.404;8.566;2022-08-02T09:45:46;96660.97;;;32.87;47.29
39243;BME280;29823;47.404;8.566;2022-08-02T09:48:14;96657.69;;;32.78;47.16
39243;BME280;29823;47.404;8.566;2022-08-02T09:50:43;96642.59;;;31.08;52.26
39243;BME280;29823;47.404;8.566;2022-08-02T09:53:12;96660.06;;;31.27;50.76
39243;BME280;29823;47.404;8.566;2022-08-02T09:55:41;96654.81;;;31.07;49.57
39243;BME280;29823;47.404;8.566;2022-08-02T09:58:18;96652.28;;;32.24;48.88
39243;BME280;29823;47.404;8.566;2022-08-02T10:00:53;96649.81;;;30.50;51.32
39243;BME280;29823;47.404;8.566;2022-08-02T10:03:21;96643.47;;;31.43;48.99
39243;BME280;29823;47.404;8.566;2022-08-02T10:06:01;96642.09;;;30.56;52.04
39243;BME280;29823;47.404;8.566;2022-08-02T10:08:31;96641.88;;;30.06;51.60
39243;BME280;29823;47.404;8.566;2022-08-02T10:11:01;96648.03;;;29.48;53.85
39243;BME280;29823;47.404;8.566;2022-08-02T10:13:30;96645.22;;;31.01;52.21
39243;BME280;29823;47.404;8.566;2022-08-02T10:15:58;96641.34;;;31.05;49.62
39243;BME280;29823;47.404;8.566;2022-08-02T10:18:28;96636.78;;;29.92;52.56
39243;BME280;29823;47.404;8.566;2022-08-02T10:21:08;96639.13;;;31.11;48.45
39243;BME280;29823;47.404;8.566;2022-08-02T10:23:38;96632.81;;;31.26;49.35
39243;BME280;29823;47.404;8.566;2022-08-02T10:26:08;96620.63;;;31.65;47.23
39243;BME280;29823;47.404;8.566;2022-08-02T10:28:36;96630.75;;;32.33;46.90
39243;BME280;29823;47.404;8.566;2022-08-02T10:31:05;96620.03;;;32.54;44.80
39243;BME280;29823;47.404;8.566;2022-08-02T10:33:34;96614.50;;;32.54;46.16
39243;BME280;29823;47.404;8.566;2022-08-02T10:36:05;96612.56;;;31.94;48.44
39243;BME280;29823;47.404;8.566;2022-08-02T10:38:35;96614.97;;;33.05;44.76
39243;BME280;29823;47.404;8.566;2022-08-02T10:41:04;96614.59;;;32.80;45.71
39243;BME280;29823;47.404;8.566;2022-08-02T10:43:43;96615.03;;;33.08;45.28
39243;BME280;29823;47.404;8.566;2022-08-02T10:46:21;96609.28;;;32.08;50.49
39243;BME280;29823;47.404;8.566;2022-08-02T10:49:09;96603.88;;;32.34;48.31
39243;BME280;29823;47.404;8.566;2022-08-02T10:52:04;96605.81;;;31.38;49.93
39243;BME280;29823;47.404;8.566;2022-08-02T10:54:35;96610.22;;;31.96;46.81
39243;BME280;29823;47.404;8.566;2022-08-02T10:57:13;96605.94;;;32.63;48.60
39243;BME280;29823;47.404;8.566;2022-08-02T10:59:43;96607.75;;;31.91;46.99
39243;BME280;29823;47.404;8.566;2022-08-02T11:02:12;96607.28;;;32.08;46.73
39243;BME280;29823;47.404;8.566;2022-08-02T11:05:13;96607.13;;;32.62;47.33
39243;BME280;29823;47.404;8.566;2022-08-02T11:07:43;96604.47;;;32.46;46.60
39243;BME280;29823;47.404;8.566;2022-08-02T11:10:35;96602.63;;;32.31;43.53
39243;BME280;29823;47.404;8.566;2022-08-02T11:13:06;96603.19;;;32.85;43.67
39243;BME280;29823;47.404;8.566;2022-08-02T11:15:54;96597.81;;;34.10;41.47
39243;BME280;29823;47.404;8.566;2022-08-02T11:21:26;96593.31;;;33.69;44.03
39243;BME280;29823;47.404;8.566;2022-08-02T11:23:54;96589.47;;;34.10;42.55
39243;BME280;29823;47.404;8.566;2022-08-02T11:26:42;96582.81;;;35.05;39.37
39243;BME280;29823;47.404;8.566;2022-08-02T11:29:12;96572.84;;;33.22;41.89
39243;BME280;29823;47.404;8.566;2022-08-02T11:31:44;96580.78;;;34.12;41.62
39243;BME280;29823;47.404;8.566;2022-08-02T11:34:12;96576.44;;;35.01;42.24
39243;BME280;29823;47.404;8.566;2022-08-02T11:37:00;96581.34;;;35.97;39.75
39243;BME280;29823;47.404;8.566;2022-08-02T11:39:28;96568.72;;;35.35;40.80
39243;BME280;29823;47.404;8.566;2022-08-02T11:41:57;96575.41;;;36.12;37.54
39243;BME280;29823;47.404;8.566;2022-08-02T11:44:27;96571.19;;;36.95;35.71
39243;BME280;29823;47.404;8.566;2022-08-02T11:46:58;96567.94;;;36.44;36.68
39243;BME280;29823;47.404;8.566;2022-08-02T11:49:26;96572.81;;;35.58;38.24
39243;BME280;29823;47.404;8.566;2022-08-02T11:51:57;96574.56;;;35.87;36.84
39243;BME280;29823;47.404;8.566;2022-08-02T11:54:29;96569.09;;;37.41;33.36
39243;BME280;29823;47.404;8.566;2022-08-02T11:57:15;96559.16;;;37.54;32.51
39243;BME280;29823;47.404;8.566;2022-08-02T11:59:47;96560.81;;;37.17;33.97
39243;BME280;29823;47.404;8.566;2022-08-02T12:02:17;96558.84;;;36.75;34.71
39243;BME280;29823;47.404;8.566;2022-08-02T12:04:52;96563.38;;;35.77;35.53
39243;BME280;29823;47.404;8.566;2022-08-02T12:07:29;96557.59;;;37.32;33.58
39243;BME280;29823;47.404;8.566;2022-08-02T12:10:03;96555.72;;;38.66;32.33
39243;BME280;29823;47.404;8.566;2022-08-02T12:12:32;96556.47;;;38.19;32.19
39243;BME280;29823;47.404;8.566;2022-08-02T12:15:00;96556.44;;;37.05;32.61
39243;BME280;29823;47.404;8.566;2022-08-02T12:17:29;96561.22;;;36.80;34.00
39243;BME280;29823;47.404;8.566;2022-08-02T12:20:14;96561.22;;;36.77;31.72
39243;BME280;29823;47.404;8.566;2022-08-02T12:22:43;96557.88;;;35.84;33.22
39243;BME280;29823;47.404;8.566;2022-08-02T12:25:15;96562.75;;;36.39;32.59
39243;BME280;29823;47.404;8.566;2022-08-02T12:28:13;96560.44;;;36.69;32.30
39243;BME280;29823;47.404;8.566;2022-08-02T12:30:55;96557.38;;;35.68;34.86
39243;BME280;29823;47.404;8.566;2022-08-02T12:33:26;96554.47;;;35.43;34.86
39243;BME280;29823;47.404;8.566;2022-08-02T12:35:55;96554.31;;;35.97;33.70
39243;BME280;29823;47.404;8.566;2022-08-02T12:38:23;96547.50;;;35.77;31.68
39243;BME280;29823;47.404;8.566;2022-08-02T12:40:51;96550.84;;;37.19;33.06
39243;BME280;29823;47.404;8.566;2022-08-02T12:43:21;96545.28;;;36.81;31.22
39243;BME280;29823;47.404;8.566;2022-08-02T12:45:50;96550.41;;;37.35;32.38
39243;BME280;29823;47.404;8.566;2022-08-02T12:48:34;96533.59;;;37.63;32.14
39243;BME280;29823;47.404;8.566;2022-08-02T12:51:18;96538.88;;;37.15;31.22
39243;BME280;29823;47.404;8.566;2022-08-02T12:53:46;96523.41;;;36.76;34.04
39243;BME280;29823;47.404;8.566;2022-08-02T12:56:27;96527.38;;;36.33;30.62
39243;BME280;29823;47.404;8.566;2022-08-02T12:58:55;96521.00;;;36.81;32.20
39243;BME280;29823;47.404;8.566;2022-08-02T13:01:24;96518.06;;;37.55;29.75
39243;BME280;29823;47.404;8.566;2022-08-02T13:03:55;96514.41;;;37.68;33.66
39243;BME280;29823;47.404;8.566;2022-08-02T13:06:39;96510.56;;;38.71;30.28
39243;BME280;29823;47.404;8.566;2022-08-02T13:09:15;96507.75;;;37.38;30.41
39243;BME280;29823;47.404;8.566;2022-08-02T13:11:43;96512.97;;;37.25;30.38
39243;BME280;29823;47.404;8.566;2022-08-02T13:14:12;96509.47;;;36.83;30.91
39243;BME280;29823;47.404;8.566;2022-08-02T13:16:42;96501.88;;;36.76;28.51
39243;BME280;29823;47.404;8.566;2022-08-02T13:19:12;96501.75;;;38.25;28.78